sensor_id;sensor_type;location;lat;lon;timestamp;pressure;altitude;pressure_sealevel;temperature;humidity
71857;BME280;63344;46.980;28.882;2023-11-19T00:01:13;100644.22;;;2.38;74.65
71857;BME280;63344;46.980;28.882;2023-11-19T00:04:00;100650.38;;;2.30;75.02
71857;BME280;63344;46.980;28.882;2023-11-19T00:06:28;100660.84;;;2.28;75.09
71857;BME280;63344;46.980;28.882;2023-11-19T00:08:56;100661.72;;;2.27;74.30
71857;BME280;63344;46.980;28.882;2023-11-19T00:11:23;100674.81;;;2.30;74.40
71857;BME280;63344;46.980;28.882;2023-11-19T00:13:52;100678.34;;;2.26;74.41
71857;BME280;63344;46.980;28.882;2023-11-19T00:16:22;100660.84;;;2.27;73.71
71857;BME280;63344;46.980;28.882;2023-11-19T00:18:50;100655.63;;;2.27;73.66
71857;BME280;63344;46.980;28.882;2023-11-19T00:21:17;100637.28;;;2.28;73.02
71857;BME280;63344;46.980;28.882;2023-11-19T00:23:45;100672.22;;;2.24;73.16
71857;BME280;63344;46.980;28.882;2023-11-19T00:26:13;100673.09;;;2.22;73.73
71857;BME280;63344;46.980;28.882;2023-11-19T00:28:41;100660.00;;;2.26;73.14
71857;BME280;63344;46.980;28.882;2023-11-19T00:31:11;100668.75;;;2.19;73.60
71857;BME280;63344;46.980;28.882;2023-11-19T00:33:39;100683.63;;;2.14;73.71
71857;BME280;63344;46.980;28.882;2023-11-19T00:36:16;100678.34;;;2.15;74.20
71857;BME280;63344;46.980;28.882;2023-11-19T00:38:43;100698.47;;;2.10;73.97
71857;BME280;63344;46.980;28.882;2023-11-19T00:41:11;100678.38;;;2.11;73.99
71857;BME280;63344;46.980;28.882;2023-11-19T00:43:38;100657.44;;;2.11;73.75
71857;BME280;63344;46.980;28.882;2023-11-19T00:46:07;100665.28;;;2.09;74.21
71857;BME280;63344;46.980;28.882;2023-11-19T00:48:34;100660.94;;;2.05;73.44
71857;BME280;63344;46.980;28.882;2023-11-19T00:51:02;100660.97;;;2.01;73.61
71857;BME280;63344;46.980;28.882;2023-11-19T00:53:31;100674.94;;;1.96;73.48
71857;BME280;63344;46.980;28.882;2023-11-19T00:55:59;100684.53;;;1.99;73.73
71857;BME280;63344;46.980;28.882;2023-11-19T00:58:27;100681.94;;;1.94;73.36
71857;BME280;63344;46.980;28.882;2023-11-19T01:00:57;100682.78;;;1.93;73.51
71857;BME280;63344;46.980;28.882;2023-11-19T01:03:24;100688.03;;;1.87;73.67
71857;BME280;63344;46.980;28.882;2023-11-19T01:05:53;100689.78;;;1.85;73.68
71857;BME280;63344;46.980;28.882;2023-11-19T01:08:20;100689.78;;;1.94;73.08
71857;BME280;63344;46.980;28.882;2023-11-19T01:10:48;100688.94;;;1.88;72.94
71857;BME280;63344;46.980;28.882;2023-11-19T01:13:15;100697.66;;;1.81;73.05
71857;BME280;63344;46.980;28.882;2023-11-19T01:15:44;100702.91;;;1.82;73.12
71857;BME280;63344;46.980;28.882;2023-11-19T01:18:11;100685.44;;;1.83;72.73
71857;BME280;63344;46.980;28.882;2023-11-19T01:20:39;100709.88;;;1.85;72.60
71857;BME280;63344;46.980;28.882;2023-11-19T01:23:06;100708.13;;;1.85;71.82
71857;BME280;63344;46.980;28.882;2023-11-19T01:25:36;100706.38;;;1.89;71.80
71857;BME280;63344;46.980;28.882;2023-11-19T01:28:05;100696.75;;;1.89;71.63
71857;BME280;63344;46.980;28.882;2023-11-19T01:30:33;100705.50;;;1.88;71.68
71857;BME280;63344;46.980;28.882;2023-11-19T01:33:00;100677.56;;;1.90;70.50
71857;BME280;63344;46.980;28.882;2023-11-19T01:35:28;100699.41;;;1.86;71.00
71857;BME280;63344;46.980;28.882;2023-11-19T01:37:56;100689.81;;;1.79;71.69
71857;BME280;63344;46.980;28.882;2023-11-19T01:40:23;100719.47;;;1.81;71.78
71857;BME280;63344;46.980;28.882;2023-11-19T01:42:51;100713.38;;;1.77;72.68
71857;BME280;63344;46.980;28.882;2023-11-19T01:45:27;100704.66;;;1.78;73.07
71857;BME280;63344;46.980;28.882;2023-11-19T01:47:57;100695.03;;;1.79;73.24
71857;BME280;63344;46.980;28.882;2023-11-19T01:50:25;100703.75;;;1.79;73.14
71857;BME280;63344;46.980;28.882;2023-11-19T01:52:54;100687.19;;;1.82;72.40
71857;BME280;63344;46.980;28.882;2023-11-19T01:55:22;100707.28;;;1.80;72.56
71857;BME280;63344;46.980;28.882;2023-11-19T01:57:49;100716.88;;;1.73;72.76
71857;BME280;63344;46.980;28.882;2023-11-19T02:00:18;100720.38;;;1.78;72.57
71857;BME280;63344;46.980;28.882;2023-11-19T02:02:47;100709.88;;;1.75;72.40
71857;BME280;63344;46.980;28.882;2023-11-19T02:05:15;100734.34;;;1.76;72.82
71857;BME280;63344;46.980;28.882;2023-11-19T02:07:43;100736.97;;;1.76;72.87
71857;BME280;63344;46.980;28.882;2023-11-19T02:10:11;100748.28;;;1.75;72.85
71857;BME280;63344;46.980;28.882;2023-11-19T02:12:41;100742.19;;;1.71;73.10
71857;BME280;63344;46.980;28.882;2023-11-19T02:15:13;100743.94;;;1.66;73.23
71857;BME280;63344;46.980;28.882;2023-11-19T02:17:40;100736.94;;;1.73;72.57
71857;BME280;63344;46.980;28.882;2023-11-19T02:20:08;100736.97;;;1.68;73.33
71857;BME280;63344;46.980;28.882;2023-11-19T02:22:36;100730.81;;;1.68;72.96
71857;BME280;63344;46.980;28.882;2023-11-19T02:25:25;100739.59;;;1.70;72.14
71857;BME280;63344;46.980;28.882;2023-11-19T02:27:59;100729.09;;;1.61;72.40
71857;BME280;63344;46.980;28.882;2023-11-19T02:30:28;100740.44;;;1.59;72.82
71857;BME280;63344;46.980;28.882;2023-11-19T02:32:56;100749.19;;;1.60;72.56
71857;BME280;63344;46.980;28.882;2023-11-19T02:35:31;100733.47;;;1.55;72.20
71857;BME280;63344;46.980;28.882;2023-11-19T02:37:59;100748.31;;;1.56;71.97
71857;BME280;63344;46.980;28.882;2023-11-19T02:40:27;100750.03;;;1.47;72.39
71857;BME280;63344;46.980;28.882;2023-11-19T02:42:57;100729.97;;;1.49;72.08
71857;BME280;63344;46.980;28.882;2023-11-19T02:45:26;100725.59;;;1.48;72.12
71857;BME280;63344;46.980;28.882;2023-11-19T02:47:53;100742.19;;;1.45;72.47
71857;BME280;63344;46.980;28.882;2023-11-19T02:50:22;100724.75;;;1.47;72.25
71857;BME280;63344;46.980;28.882;2023-11-19T02:52:54;100724.75;;;1.50;71.80
71857;BME280;63344;46.980;28.882;2023-11-19T02:55:24;100733.44;;;1.42;71.65
71857;BME280;63344;46.980;28.882;2023-11-19T02:57:52;100742.19;;;1.27;72.22
71857;BME280;63344;46.980;28.882;2023-11-19T03:00:22;100726.47;;;1.30;73.06
71857;BME280;63344;46.980;28.882;2023-11-19T03:02:50;100745.66;;;1.29;72.70
71857;BME280;63344;46.980;28.882;2023-11-19T03:05:27;100737.81;;;1.29;73.38
71857;BME280;63344;46.980;28.882;2023-11-19T03:07:57;100724.72;;;1.33;73.21
71857;BME280;63344;46.980;28.882;2023-11-19T03:10:25;100737.84;;;1.38;73.10
71857;BME280;63344;46.980;28.882;2023-11-19T03:12:52;100742.19;;;1.37;72.88
71857;BME280;63344;46.980;28.882;2023-11-19T03:15:22;100729.06;;;1.30;72.80
71857;BME280;63344;46.980;28.882;2023-11-19T03:17:49;100716.88;;;1.33;72.47
71857;BME280;63344;46.980;28.882;2023-11-19T03:20:18;100757.91;;;1.36;72.55
71857;BME280;63344;46.980;28.882;2023-11-19T03:22:45;100743.03;;;1.33;72.59
71857;BME280;63344;46.980;28.882;2023-11-19T03:25:13;100732.56;;;1.33;72.47
71857;BME280;63344;46.980;28.882;2023-11-19T03:27:40;100749.16;;;1.32;72.46
71857;BME280;63344;46.980;28.882;2023-11-19T03:30:11;100739.59;;;1.36;71.92
71857;BME280;63344;46.980;28.882;2023-11-19T03:32:38;100739.53;;;1.30;72.03
71857;BME280;63344;46.980;28.882;2023-11-19T03:35:06;100736.94;;;1.30;72.55
71857;BME280;63344;46.980;28.882;2023-11-19T03:37:36;100748.28;;;1.29;73.00
71857;BME280;63344;46.980;28.882;2023-11-19T03:40:04;100720.38;;;1.38;72.39
71857;BME280;63344;46.980;28.882;2023-11-19T03:42:32;100722.13;;;1.29;72.70
71857;BME280;63344;46.980;28.882;2023-11-19T03:44:59;100746.53;;;1.26;73.12
71857;BME280;63344;46.980;28.882;2023-11-19T03:47:31;100708.16;;;1.30;71.88
71857;BME280;63344;46.980;28.882;2023-11-19T03:50:37;100744.78;;;1.27;72.34
71857;BME280;63344;46.980;28.882;2023-11-19T03:53:15;100751.75;;;1.23;72.71
71857;BME280;63344;46.980;28.882;2023-11-19T03:56:05;100741.31;;;1.31;72.43
71857;BME280;63344;46.980;28.882;2023-11-19T03:58:36;100753.50;;;1.23;72.37
71857;BME280;63344;46.980;28.882;2023-11-19T04:01:15;100736.06;;;1.23;72.39
71857;BME280;63344;46.980;28.882;2023-11-19T04:03:58;100730.84;;;1.25;71.42
71857;BME280;63344;46.980;28.882;2023-11-19T04:06:45;100718.63;;;1.21;72.14
71857;BME280;63344;46.980;28.882;2023-11-19T04:09:35;100724.72;;;1.16;72.44
71857;BME280;63344;46.980;28.882;2023-11-19T04:12:54;100724.72;;;1.13;72.47
71857;BME280;63344;46.980;28.882;2023-11-19T04:15:45;100729.94;;;1.09;73.00
71857;BME280;63344;46.980;28.882;2023-11-19T04:18:40;100730.81;;;1.09;72.62
71857;BME280;63344;46.980;28.882;2023-11-19T04:21:18;100702.06;;;1.12;72.15
71857;BME280;63344;46.980;28.882;2023-11-19T04:24:30;100742.16;;;1.07;72.02
71857;BME280;63344;46.980;28.882;2023-11-19T04:30:54;100740.41;;;1.04;72.46
71857;BME280;63344;46.980;28.882;2023-11-19T04:33:48;100732.56;;;1.03;72.51
71857;BME280;63344;46.980;28.882;2023-11-19T04:36:34;100733.44;;;1.00;71.79
71857;BME280;63344;46.980;28.882;2023-11-19T04:39:04;100727.31;;;0.99;71.23
71857;BME280;63344;46.980;28.882;2023-11-19T04:41:46;100748.25;;;0.98;71.56
71857;BME280;63344;46.980;28.882;2023-11-19T04:44:46;100730.78;;;0.95;71.09
71857;BME280;63344;46.980;28.882;2023-11-19T04:47:26;100736.91;;;0.94;71.00
71857;BME280;63344;46.980;28.882;2023-11-19T04:50:08;100749.06;;;0.91;71.73
71857;BME280;63344;46.980;28.882;2023-11-19T04:53:06;100752.56;;;0.93;71.70
71857;BME280;63344;46.980;28.882;2023-11-19T04:56:47;100756.06;;;0.95;71.69
71857;BME280;63344;46.980;28.882;2023-11-19T04:59:21;100746.47;;;0.89;70.96
71857;BME280;63344;46.980;28.882;2023-11-19T05:02:26;100748.22;;;0.89;71.29
71857;BME280;63344;46.980;28.882;2023-11-19T05:10:18;100760.41;;;0.82;70.65
71857;BME280;63344;46.980;28.882;2023-11-19T05:13:57;100752.50;;;0.77;70.60
71857;BME280;63344;46.980;28.882;2023-11-19T05:17:19;100759.47;;;0.66;70.99
71857;BME280;63344;46.980;28.882;2023-11-19T05:20:55;100778.63;;;0.70;70.71
71857;BME280;63344;46.980;28.882;2023-11-19T05:24:40;100764.69;;;0.65;70.70
71857;BME280;63344;46.980;28.882;2023-11-19T05:28:44;100765.56;;;0.68;70.74
71857;BME280;63344;46.980;28.882;2023-11-19T05:32:26;100757.72;;;0.68;70.30
71857;BME280;63344;46.980;28.882;2023-11-19T05:35:52;100762.97;;;0.68;70.31
71857;BME280;63344;46.980;28.882;2023-11-19T05:38:42;100768.16;;;0.62;70.18
71857;BME280;63344;46.980;28.882;2023-11-19T05:54:55;100761.19;;;0.67;70.35
71857;BME280;63344;46.980;28.882;2023-11-19T06:10:32;100751.63;;;0.74;69.62
71857;BME280;63344;46.980;28.882;2023-11-19T06:14:35;100759.47;;;0.74;70.49
71857;BME280;63344;46.980;28.882;2023-11-19T06:17:58;100758.66;;;0.78;69.62
71857;BME280;63344;46.980;28.882;2023-11-19T06:47:20;100754.25;;;0.72;68.50
71857;BME280;63344;46.980;28.882;2023-11-19T07:02:23;100721.97;;;0.61;67.49
71857;BME280;63344;46.980;28.882;2023-11-19T07:07:02;100758.59;;;0.64;67.57
71857;BME280;63344;46.980;28.882;2023-11-19T07:10:37;100757.72;;;0.62;67.71
71857;BME280;63344;46.980;28.882;2023-11-19T07:14:05;100750.78;;;0.70;67.49
71857;BME280;63344;46.980;28.882;2023-11-19T07:21:24;100761.19;;;0.58;68.08
71857;BME280;63344;46.980;28.882;2023-11-19T07:25:01;100730.69;;;0.60;67.99
71857;BME280;63344;46.980;28.882;2023-11-19T07:35:47;100746.41;;;0.74;67.36
71857;BME280;63344;46.980;28.882;2023-11-19T07:38:16;100744.69;;;0.81;67.68
71857;BME280;63344;46.980;28.882;2023-11-19T07:40:49;100734.25;;;0.81;67.46
71857;BME280;63344;46.980;28.882;2023-11-19T07:43:20;100716.78;;;0.73;67.43
71857;BME280;63344;46.980;28.882;2023-11-19T08:11:26;100739.44;;;0.77;66.97
71857;BME280;63344;46.980;28.882;2023-11-19T09:30:19;100721.97;;;0.61;66.63
71857;BME280;63344;46.980;28.882;2023-11-19T10:08:02;100650.53;;;0.57;65.64
71857;BME280;63344;46.980;28.882;2023-11-19T10:56:13;100633.06;;;0.46;64.87
71857;BME280;63344;46.980;28.882;2023-11-19T11:56:00;100635.69;;;0.47;65.62
71857;BME280;63344;46.980;28.882;2023-11-19T11:59:25;100628.75;;;0.46;65.53
71857;BME280;63344;46.980;28.882;2023-11-19T12:02:12;100635.72;;;0.52;65.70
71857;BME280;63344;46.980;28.882;2023-11-19T12:05:26;100612.22;;;0.61;65.20
71857;BME280;63344;46.980;28.882;2023-11-19T12:08:26;100621.81;;;0.65;64.42
71857;BME280;63344;46.980;28.882;2023-11-19T12:11:13;100634.88;;;0.70;64.43
71857;BME280;63344;46.980;28.882;2023-11-19T12:13:55;100637.50;;;0.74;64.02
71857;BME280;63344;46.980;28.882;2023-11-19T12:16:45;100627.94;;;0.78;63.79
71857;BME280;63344;46.980;28.882;2023-11-19T12:19:35;100634.03;;;0.85;64.12
71857;BME280;63344;46.980;28.882;2023-11-19T12:22:49;100638.41;;;0.83;64.07
71857;BME280;63344;46.980;28.882;2023-11-19T12:26:35;100639.25;;;0.88;64.20
71857;BME280;63344;46.980;28.882;2023-11-19T12:29:45;100633.16;;;0.89;64.26
71857;BME280;63344;46.980;28.882;2023-11-19T12:32:52;100630.56;;;0.90;64.40
71857;BME280;63344;46.980;28.882;2023-11-19T12:36:15;100631.38;;;0.69;64.11
71857;BME280;63344;46.980;28.882;2023-11-19T12:39:14;100639.19;;;0.54;64.71
71857;BME280;63344;46.980;28.882;2023-11-19T12:42:55;100643.53;;;0.52;64.70
71857;BME280;63344;46.980;28.882;2023-11-19T12:49:59;100625.25;;;0.43;64.08
71857;BME280;63344;46.980;28.882;2023-11-19T12:52:39;100647.03;;;0.40;64.26
71857;BME280;63344;46.980;28.882;2023-11-19T12:55:31;100635.66;;;0.33;64.87
71857;BME280;63344;46.980;28.882;2023-11-19T12:58:37;100651.34;;;0.35;65.07
71857;BME280;63344;46.980;28.882;2023-11-19T13:01:40;100647.84;;;0.33;65.11
71857;BME280;63344;46.980;28.882;2023-11-19T13:04:43;100654.84;;;0.40;65.14
71857;BME280;63344;46.980;28.882;2023-11-19T13:07:46;100643.53;;;0.41;65.17
71857;BME280;63344;46.980;28.882;2023-11-19T13:11:00;100613.03;;;0.37;64.35
71857;BME280;63344;46.980;28.882;2023-11-19T13:14:13;100634.81;;;0.39;64.53
71857;BME280;63344;46.980;28.882;2023-11-19T13:17:00;100619.13;;;0.36;64.72
71857;BME280;63344;46.980;28.882;2023-11-19T13:20:06;100627.00;;;0.42;65.06
71857;BME280;63344;46.980;28.882;2023-11-19T13:23:05;100617.41;;;0.46;65.03
71857;BME280;63344;46.980;28.882;2023-11-19T13:26:08;100597.38;;;0.43;64.68
71857;BME280;63344;46.980;28.882;2023-11-19T13:28:50;100599.13;;;0.38;65.20
71857;BME280;63344;46.980;28.882;2023-11-19T13:31:23;100606.06;;;0.31;65.00
71857;BME280;63344;46.980;28.882;2023-11-19T13:34:16;100613.03;;;0.31;65.46
71857;BME280;63344;46.980;28.882;2023-11-19T13:37:23;100605.19;;;0.34;66.02
71857;BME280;63344;46.980;28.882;2023-11-19T13:40:20;100606.06;;;0.37;65.45
71857;BME280;63344;46.980;28.882;2023-11-19T13:43:07;100611.28;;;0.36;65.94
71857;BME280;63344;46.980;28.882;2023-11-19T13:46:06;100611.31;;;0.34;66.28
71857;BME280;63344;46.980;28.882;2023-11-19T13:48:58;100609.53;;;0.27;66.29
71857;BME280;63344;46.980;28.882;2023-11-19T13:51:36;100613.03;;;0.26;66.47
71857;BME280;63344;46.980;28.882;2023-11-19T13:54:23;100609.53;;;0.33;65.93
71857;BME280;63344;46.980;28.882;2023-11-19T13:57:40;100606.03;;;0.22;66.22
71857;BME280;63344;46.980;28.882;2023-11-19T14:00:45;100599.06;;;0.19;66.50
71857;BME280;63344;46.980;28.882;2023-11-19T14:04:03;100608.63;;;0.14;66.10
71857;BME280;63344;46.980;28.882;2023-11-19T14:06:55;100603.38;;;0.07;66.84
71857;BME280;63344;46.980;28.882;2023-11-19T14:09:29;100593.78;;;0.03;67.06
71857;BME280;63344;46.980;28.882;2023-11-19T14:12:00;100600.75;;;0.07;67.09
71857;BME280;63344;46.980;28.882;2023-11-19T14:14:33;100612.03;;;0.01;66.98
71857;BME280;63344;46.980;28.882;2023-11-19T14:17:24;100585.91;;;-0.02;67.17
71857;BME280;63344;46.980;28.882;2023-11-19T14:20:02;100603.31;;;-0.04;67.24
71857;BME280;63344;46.980;28.882;2023-11-19T14:22:55;100596.41;;;0.03;67.15
71857;BME280;63344;46.980;28.882;2023-11-19T14:25:51;100583.31;;;-0.01;66.82
71857;BME280;63344;46.980;28.882;2023-11-19T14:28:37;100583.31;;;-0.04;66.80
71857;BME280;63344;46.980;28.882;2023-11-19T14:31:20;100580.69;;;-0.07;67.16
71857;BME280;63344;46.980;28.882;2023-11-19T14:34:11;100560.63;;;-0.17;67.25
71857;BME280;63344;46.980;28.882;2023-11-19T14:36:46;100564.16;;;-0.12;67.33
71857;BME280;63344;46.980;28.882;2023-11-19T14:40:20;100565.00;;;-0.16;67.73
71857;BME280;63344;46.980;28.882;2023-11-19T14:44:08;100543.19;;;-0.24;67.84
71857;BME280;63344;46.980;28.882;2023-11-19T14:47:08;100574.50;;;-0.24;67.92
71857;BME280;63344;46.980;28.882;2023-11-19T14:50:31;100577.16;;;-0.21;67.97
71857;BME280;63344;46.980;28.882;2023-11-19T14:53:38;100581.50;;;-0.20;68.43
71857;BME280;63344;46.980;28.882;2023-11-19T14:56:46;100584.97;;;-0.21;67.88
71857;BME280;63344;46.980;28.882;2023-11-19T14:59:45;100570.19;;;-0.24;68.13
71857;BME280;63344;46.980;28.882;2023-11-19T15:02:51;100578.03;;;-0.21;67.51
71857;BME280;63344;46.980;28.882;2023-11-19T15:05:30;100563.22;;;-0.18;67.22
71857;BME280;63344;46.980;28.882;2023-11-19T15:08:15;100568.44;;;-0.25;67.52
71857;BME280;63344;46.980;28.882;2023-11-19T15:11:15;100560.59;;;-0.26;67.74
71857;BME280;63344;46.980;28.882;2023-11-19T15:14:03;100559.72;;;-0.28;67.71
71857;BME280;63344;46.980;28.882;2023-11-19T15:16:59;100564.97;;;-0.25;67.47
71857;BME280;63344;46.980;28.882;2023-11-19T15:19:51;100571.03;;;-0.29;67.62
71857;BME280;63344;46.980;28.882;2023-11-19T15:22:59;100566.69;;;-0.29;68.02
71857;BME280;63344;46.980;28.882;2023-11-19T15:25:59;100561.47;;;-0.32;67.60
71857;BME280;63344;46.980;28.882;2023-11-19T15:28:33;100544.91;;;-0.37;67.98
71857;BME280;63344;46.980;28.882;2023-11-19T15:31:04;100552.69;;;-0.43;67.47
71857;BME280;63344;46.980;28.882;2023-11-19T15:33:57;100558.78;;;-0.46;67.86
71857;BME280;63344;46.980;28.882;2023-11-19T15:36:25;100547.47;;;-0.48;67.80
71857;BME280;63344;46.980;28.882;2023-11-19T15:39:46;100562.28;;;-0.44;67.94
71857;BME280;63344;46.980;28.882;2023-11-19T15:55:48;100546.63;;;-0.39;68.02
71857;BME280;63344;46.980;28.882;2023-11-19T20:32:39;100395.34;;;-0.25;69.19
71857;BME280;63344;46.980;28.882;2023-11-19T20:55:47;100361.41;;;-0.08;68.37
71857;BME280;63344;46.980;28.882;2023-11-19T21:10:50;100371.88;;;-0.19;68.44
71857;BME280;63344;46.980;28.882;2023-11-19T21:13:19;100371.00;;;-0.19;68.54
71857;BME280;63344;46.980;28.882;2023-11-19T21:15:48;100369.22;;;-0.22;68.77
71857;BME280;63344;46.980;28.882;2023-11-19T21:18:25;100377.09;;;-0.19;68.87
71857;BME280;63344;46.980;28.882;2023-11-19T21:20:54;100378.84;;;-0.18;68.68
71857;BME280;63344;46.980;28.882;2023-11-19T21:23:21;100360.56;;;-0.26;68.84
71857;BME280;63344;46.980;28.882;2023-11-19T21:25:48;100381.44;;;-0.15;68.70
71857;BME280;63344;46.980;28.882;2023-11-19T21:28:16;100365.78;;;-0.21;68.39
71857;BME280;63344;46.980;28.882;2023-11-19T21:30:45;100381.44;;;-0.19;68.15
71857;BME280;63344;46.980;28.882;2023-11-19T21:33:14;100380.53;;;-0.20;68.54
71857;BME280;63344;46.980;28.882;2023-11-19T21:35:42;100393.63;;;-0.14;68.71
71857;BME280;63344;46.980;28.882;2023-11-19T21:38:10;100384.03;;;-0.16;68.41
71857;BME280;63344;46.980;28.882;2023-11-19T21:40:38;100379.69;;;-0.22;68.06
71857;BME280;63344;46.980;28.882;2023-11-19T21:43:06;100381.44;;;-0.21;68.41
71857;BME280;63344;46.980;28.882;2023-11-19T21:45:35;100375.31;;;-0.25;68.21
71857;BME280;63344;46.980;28.882;2023-11-19T21:48:03;100367.50;;;-0.23;68.44
71857;BME280;63344;46.980;28.882;2023-11-19T21:50:32;100361.41;;;-0.25;68.71
71857;BME280;63344;46.980;28.882;2023-11-19T21:52:59;100359.69;;;-0.23;68.36
71857;BME280;63344;46.980;28.882;2023-11-19T21:55:36;100344.88;;;-0.30;68.58
71857;BME280;63344;46.980;28.882;2023-11-19T21:58:10;100357.94;;;-0.23;68.48
71857;BME280;63344;46.980;28.882;2023-11-19T22:00:38;100348.38;;;-0.31;68.57
71857;BME280;63344;46.980;28.882;2023-11-19T22:03:06;100360.56;;;-0.21;68.65
71857;BME280;63344;46.980;28.882;2023-11-19T22:05:35;100344.03;;;-0.28;68.58
71857;BME280;63344;46.980;28.882;2023-11-19T22:08:16;100353.56;;;-0.28;68.72
71857;BME280;63344;46.980;28.882;2023-11-19T22:10:50;100340.53;;;-0.34;68.70
71857;BME280;63344;46.980;28.882;2023-11-19T22:13:17;100339.66;;;-0.35;69.00
71857;BME280;63344;46.980;28.882;2023-11-19T22:15:46;100344.00;;;-0.37;68.55
71857;BME280;63344;46.980;28.882;2023-11-19T22:18:13;100351.84;;;-0.29;69.01
71857;BME280;63344;46.980;28.882;2023-11-19T22:20:42;100341.41;;;-0.26;68.81
71857;BME280;63344;46.980;28.882;2023-11-19T22:23:09;100344.88;;;-0.24;68.79
71857;BME280;63344;46.980;28.882;2023-11-19T22:25:37;100332.69;;;-0.28;68.72
71857;BME280;63344;46.980;28.882;2023-11-19T22:28:04;100334.47;;;-0.21;68.79
71857;BME280;63344;46.980;28.882;2023-11-19T22:30:33;100328.34;;;-0.26;68.61
71857;BME280;63344;46.980;28.882;2023-11-19T22:33:01;100329.25;;;-0.27;69.00
71857;BME280;63344;46.980;28.882;2023-11-19T22:35:33;100332.72;;;-0.25;68.85
71857;BME280;63344;46.980;28.882;2023-11-19T22:38:02;100324.03;;;-0.27;68.86
71857;BME280;63344;46.980;28.882;2023-11-19T22:40:32;100337.06;;;-0.30;68.81
71857;BME280;63344;46.980;28.882;2023-11-19T22:43:01;100338.78;;;-0.32;69.09
71857;BME280;63344;46.980;28.882;2023-11-19T22:45:31;100325.75;;;-0.38;69.15
71857;BME280;63344;46.980;28.882;2023-11-19T22:47:59;100333.56;;;-0.32;69.24
71857;BME280;63344;46.980;28.882;2023-11-19T22:50:30;100316.16;;;-0.43;69.26
71857;BME280;63344;46.980;28.882;2023-11-19T22:52:58;100336.19;;;-0.35;68.80
71857;BME280;63344;46.980;28.882;2023-11-19T22:55:27;100340.53;;;-0.37;69.08
71857;BME280;63344;46.980;28.882;2023-11-19T22:57:55;100324.84;;;-0.42;69.24
71857;BME280;63344;46.980;28.882;2023-11-19T23:00:28;100334.44;;;-0.49;69.43
71857;BME280;63344;46.980;28.882;2023-11-19T23:02:56;100328.34;;;-0.49;69.56
71857;BME280;63344;46.980;28.882;2023-11-19T23:05:26;100325.72;;;-0.51;69.82
71857;BME280;63344;46.980;28.882;2023-11-19T23:07:54;100326.59;;;-0.56;69.62
71857;BME280;63344;46.980;28.882;2023-11-19T23:10:24;100315.28;;;-0.63;70.06
71857;BME280;63344;46.980;28.882;2023-11-19T23:12:54;100317.00;;;-0.68;69.81
71857;BME280;63344;46.980;28.882;2023-11-19T23:15:25;100317.00;;;-0.68;69.90
71857;BME280;63344;46.980;28.882;2023-11-19T23:18:00;100316.13;;;-0.69;70.05
71857;BME280;63344;46.980;28.882;2023-11-19T23:20:30;100334.41;;;-0.58;69.98
71857;BME280;63344;46.980;28.882;2023-11-19T23:23:01;100321.38;;;-0.59;69.57
71857;BME280;63344;46.980;28.882;2023-11-19T23:25:31;100316.16;;;-0.59;69.86
71857;BME280;63344;46.980;28.882;2023-11-19T23:27:59;100324.88;;;-0.56;69.89
71857;BME280;63344;46.980;28.882;2023-11-19T23:30:28;100317.88;;;-0.68;69.90
71857;BME280;63344;46.980;28.882;2023-11-19T23:33:01;100336.16;;;-0.68;70.08
71857;BME280;63344;46.980;28.882;2023-11-19T23:35:32;100339.63;;;-0.67;70.36
71857;BME280;63344;46.980;28.882;2023-11-19T23:38:03;100333.53;;;-0.74;70.54
71857;BME280;63344;46.980;28.882;2023-11-19T23:40:38;100334.38;;;-0.76;70.12
71857;BME280;63344;46.980;28.882;2023-11-19T23:43:07;100342.19;;;-0.70;70.50
71857;BME280;63344;46.980;28.882;2023-11-19T23:45:35;100342.22;;;-0.73;70.87
71857;BME280;63344;46.980;28.882;2023-11-19T23:48:02;100338.75;;;-0.69;70.96
71857;BME280;63344;46.980;28.882;2023-11-19T23:50:31;100341.34;;;-0.75;71.17
71857;BME280;63344;46.980;28.882;2023-11-19T23:52:58;100339.56;;;-0.76;71.66
71857;BME280;63344;46.980;28.882;2023-11-19T23:55:25;100337.84;;;-0.84;71.82
71857;BME280;63344;46.980;28.882;2023-11-19T23:57:54;100342.16;;;-0.84;71.85
